createdAt,value
2018-07-19T00:00:47.179Z,0.00
2018-07-19T00:01:47.185Z,0.00
2018-07-19T00:02:47.180Z,0.00
2018-07-19T00:03:47.183Z,0.00
2018-07-19T00:04:47.183Z,0.00
2018-07-19T00:05:47.191Z,0.00
2018-07-19T00:06:47.191Z,0.00
2018-07-19T00:07:47.193Z,0.00
2018-07-19T00:08:47.195Z,0.00
2018-07-19T00:09:47.194Z,0.00
2018-07-19T00:10:47.193Z,0.00
2018-07-19T00:11:47.197Z,0.00
2018-07-19T00:12:47.202Z,0.00
2018-07-19T00:13:47.198Z,0.00
2018-07-19T00:14:47.202Z,0.00
2018-07-19T00:15:47.212Z,0.00
2018-07-19T00:16:47.203Z,0.00
2018-07-19T00:17:47.205Z,0.00
2018-07-19T00:18:47.207Z,0.00
2018-07-19T00:19:47.209Z,0.00
2018-07-19T00:20:47.210Z,0.00
2018-07-19T00:21:47.213Z,0.00
2018-07-19T00:22:47.210Z,0.00
2018-07-19T00:23:47.221Z,0.00
2018-07-19T00:24:47.216Z,0.00
2018-07-19T00:25:47.218Z,0.00
2018-07-19T00:26:47.220Z,0.00
2018-07-19T00:27:47.219Z,0.00
2018-07-19T00:28:47.225Z,0.00
2018-07-19T00:29:47.244Z,0.00
2018-07-19T00:30:47.224Z,0.00
2018-07-19T00:31:47.227Z,0.00
2018-07-19T00:32:47.226Z,0.00
2018-07-19T00:33:47.282Z,0.00
2018-07-19T00:34:47.238Z,0.00
2018-07-19T00:35:47.242Z,0.00
2018-07-19T00:36:47.234Z,0.00
2018-07-19T00:37:47.239Z,0.00
2018-07-19T00:38:47.236Z,0.00
2018-07-19T00:39:47.238Z,0.00
2018-07-19T00:40:47.239Z,0.00
2018-07-19T00:41:47.242Z,0.00
2018-07-19T00:42:47.239Z,0.00
2018-07-19T00:43:47.254Z,0.00
2018-07-19T00:44:47.247Z,0.00
2018-07-19T00:45:47.248Z,0.00
2018-07-19T00:46:47.242Z,0.00
2018-07-19T00:47:47.250Z,0.00
2018-07-19T00:48:47.250Z,0.00
2018-07-19T00:49:47.253Z,0.00
2018-07-19T00:50:47.254Z,0.00
2018-07-19T00:51:47.254Z,0.00
2018-07-19T00:52:47.256Z,0.00
2018-07-19T00:53:47.260Z,0.00
2018-07-19T00:54:47.267Z,0.00
2018-07-19T00:55:47.265Z,0.00
2018-07-19T00:56:47.261Z,0.00
2018-07-19T00:57:47.263Z,0.00
2018-07-19T00:58:47.288Z,0.00
2018-07-19T00:59:47.282Z,0.00
2018-07-19T01:00:47.271Z,0.00
2018-07-19T01:01:47.268Z,0.00
2018-07-19T01:02:47.267Z,0.00
2018-07-19T01:03:47.271Z,0.00
2018-07-19T01:04:47.272Z,0.00
2018-07-19T01:05:47.274Z,0.00
2018-07-19T01:06:47.275Z,0.00
2018-07-19T01:07:47.275Z,0.00
2018-07-19T01:08:47.278Z,0.00
2018-07-19T01:09:47.278Z,0.00
2018-07-19T01:10:47.280Z,0.00
2018-07-19T01:11:47.282Z,0.00
2018-07-19T01:12:47.285Z,0.00
2018-07-19T01:13:47.285Z,0.00
2018-07-19T01:14:47.281Z,0.00
2018-07-19T01:15:47.286Z,0.00
2018-07-19T01:16:47.292Z,0.00
2018-07-19T01:17:47.289Z,0.00
2018-07-19T01:18:47.284Z,0.00
2018-07-19T01:19:47.290Z,0.00
2018-07-19T01:20:47.290Z,0.00
2018-07-19T01:21:47.295Z,0.00
2018-07-19T01:22:47.297Z,0.00
2018-07-19T01:23:47.295Z,0.00
2018-07-19T01:24:47.296Z,0.00
2018-07-19T01:25:47.301Z,0.00
2018-07-19T01:26:47.303Z,0.00
2018-07-19T01:27:47.302Z,0.00
2018-07-19T01:28:47.301Z,0.00
2018-07-19T01:29:47.302Z,0.00
2018-07-19T01:30:47.303Z,0.00
2018-07-19T01:31:47.311Z,0.00
2018-07-19T01:32:47.305Z,0.00
2018-07-19T01:33:47.305Z,0.00
2018-07-19T01:34:47.311Z,0.00
2018-07-19T01:35:47.308Z,0.00
2018-07-19T01:36:47.313Z,0.00
2018-07-19T01:37:47.310Z,0.00
2018-07-19T01:38:47.311Z,0.00
2018-07-19T01:39:47.311Z,0.00
2018-07-19T01:40:47.318Z,0.00
2018-07-19T01:41:47.323Z,0.00
2018-07-19T01:42:47.317Z,0.00
2018-07-19T01:43:47.319Z,0.00
2018-07-19T01:44:47.320Z,0.00
2018-07-19T01:45:47.343Z,0.00
2018-07-19T01:46:47.317Z,0.00
2018-07-19T01:47:47.323Z,0.00
2018-07-19T01:48:47.322Z,0.00
2018-07-19T01:49:47.331Z,0.00
2018-07-19T01:50:47.325Z,0.00
2018-07-19T01:51:47.327Z,0.00
2018-07-19T01:52:47.329Z,0.00
2018-07-19T01:53:47.330Z,0.00
2018-07-19T01:54:47.331Z,0.00
2018-07-19T01:55:47.325Z,0.00
2018-07-19T01:56:47.337Z,0.00
2018-07-19T01:57:47.331Z,0.00
2018-07-19T01:58:47.335Z,0.00
2018-07-19T01:59:47.332Z,0.00
2018-07-19T02:00:47.336Z,0.00
2018-07-19T02:01:47.337Z,0.00
2018-07-19T02:02:47.339Z,0.00
2018-07-19T02:03:47.340Z,0.00
2018-07-19T02:04:47.341Z,0.00
2018-07-19T02:05:47.341Z,0.00
2018-07-19T02:06:47.346Z,0.00
2018-07-19T02:07:47.352Z,0.00
2018-07-19T02:08:47.345Z,0.00
2018-07-19T02:09:47.346Z,0.00
2018-07-19T02:10:47.350Z,0.00
2018-07-19T02:11:47.348Z,0.00
2018-07-19T02:12:47.350Z,0.00
2018-07-19T02:13:47.345Z,0.00
2018-07-19T02:14:47.349Z,0.00
2018-07-19T02:15:47.353Z,0.00
2018-07-19T02:16:47.388Z,0.00
2018-07-19T02:17:47.356Z,0.00
2018-07-19T02:18:47.369Z,0.00
2018-07-19T02:19:47.354Z,0.00
2018-07-19T02:20:47.360Z,0.00
2018-07-19T02:21:47.359Z,0.00
2018-07-19T02:22:47.361Z,0.00
2018-07-19T02:23:47.362Z,0.00
2018-07-19T02:24:47.363Z,0.00
2018-07-19T02:25:47.369Z,4.00
2018-07-19T02:26:47.370Z,4.00
2018-07-19T02:27:47.367Z,4.00
2018-07-19T02:28:47.367Z,4.00
2018-07-19T02:29:47.379Z,0.00
2018-07-19T02:30:47.369Z,4.00
2018-07-19T02:31:47.371Z,4.00
2018-07-19T02:32:47.369Z,4.00
2018-07-19T02:33:47.374Z,8.00
2018-07-19T02:34:47.372Z,4.00
2018-07-19T02:35:47.374Z,8.00
2018-07-19T02:36:47.374Z,8.00
2018-07-19T02:37:47.376Z,8.00
2018-07-19T02:38:47.376Z,12.00
2018-07-19T02:39:47.377Z,8.00
2018-07-19T02:40:47.379Z,8.00
2018-07-19T02:41:47.379Z,12.00
2018-07-19T02:42:47.380Z,12.00
2018-07-19T02:43:47.402Z,16.00
2018-07-19T02:44:47.380Z,16.00
2018-07-19T02:45:47.383Z,16.00
2018-07-19T02:46:47.393Z,20.00
2018-07-19T02:47:47.383Z,24.00
2018-07-19T02:48:47.385Z,28.00
2018-07-19T02:49:47.383Z,32.00
2018-07-19T02:50:47.389Z,32.00
2018-07-19T02:51:47.404Z,36.00
2018-07-19T02:52:47.389Z,36.00
2018-07-19T02:53:47.388Z,44.00
2018-07-19T02:54:47.389Z,48.00
2018-07-19T02:55:47.400Z,56.00
2018-07-19T02:56:47.392Z,60.00
2018-07-19T02:57:47.393Z,64.00
2018-07-19T02:58:47.392Z,68.00
2018-07-19T02:59:47.393Z,72.00
2018-07-19T03:00:47.399Z,80.00
2018-07-19T03:01:47.394Z,84.00
2018-07-19T03:02:47.397Z,88.00
2018-07-19T03:03:47.396Z,96.00
2018-07-19T03:04:47.403Z,104.00
2018-07-19T03:05:47.398Z,112.00
2018-07-19T03:06:47.393Z,124.00
2018-07-19T03:07:47.482Z,132.00
2018-07-19T03:08:47.399Z,140.00
2018-07-19T03:09:47.402Z,148.00
2018-07-19T03:10:47.401Z,156.00
2018-07-19T03:11:47.404Z,168.00
2018-07-19T03:12:47.407Z,180.00
2018-07-19T03:13:47.404Z,192.00
2018-07-19T03:14:47.404Z,204.00
2018-07-19T03:15:47.405Z,216.00
2018-07-19T03:16:47.409Z,232.00
2018-07-19T03:17:47.412Z,244.00
2018-07-19T03:18:47.408Z,260.00
2018-07-19T03:19:47.407Z,272.00
2018-07-19T03:20:47.410Z,288.00
2018-07-19T03:21:47.409Z,308.00
2018-07-19T03:22:47.410Z,324.00
2018-07-19T03:23:47.413Z,340.00
2018-07-19T03:24:47.410Z,360.00
2018-07-19T03:25:47.416Z,380.00
2018-07-19T03:26:47.410Z,408.00
2018-07-19T03:27:47.416Z,428.00
2018-07-19T03:28:47.413Z,452.00
2018-07-19T03:29:47.420Z,480.00
2018-07-19T03:30:47.473Z,512.00
2018-07-19T03:31:47.415Z,536.00
2018-07-19T03:32:47.417Z,564.00
2018-07-19T03:33:47.421Z,588.00
2018-07-19T03:34:47.424Z,608.00
2018-07-19T03:35:47.417Z,636.00
2018-07-19T03:36:47.417Z,668.00
2018-07-19T03:37:47.419Z,696.00
2018-07-19T03:38:47.420Z,724.00
2018-07-19T03:39:47.421Z,760.00
2018-07-19T03:40:47.420Z,792.00
2018-07-19T03:41:47.420Z,816.00
2018-07-19T03:42:47.421Z,848.00
2018-07-19T03:43:47.425Z,876.00
2018-07-19T03:44:47.423Z,940.00
2018-07-19T03:45:47.424Z,988.00
2018-07-19T03:46:47.424Z,1024.00
2018-07-19T03:47:47.426Z,1076.00
2018-07-19T03:48:47.425Z,1084.00
2018-07-19T03:49:47.426Z,1124.00
2018-07-19T03:50:47.430Z,1172.00
2018-07-19T03:51:47.437Z,1204.00
2018-07-19T03:52:47.429Z,1272.00
2018-07-19T03:53:47.429Z,1360.00
2018-07-19T03:54:47.431Z,1448.00
2018-07-19T03:55:47.431Z,1516.00
2018-07-19T03:56:47.431Z,1576.00
2018-07-19T03:57:47.436Z,1676.00
2018-07-19T03:58:47.433Z,1752.00
2018-07-19T03:59:47.435Z,1840.00
2018-07-19T04:00:47.434Z,1892.00
2018-07-19T04:01:47.445Z,1908.00
2018-07-19T04:02:47.437Z,1912.00
2018-07-19T04:03:47.459Z,1816.00
2018-07-19T04:04:47.436Z,1788.00
2018-07-19T04:05:47.437Z,1904.00
2018-07-19T04:06:47.443Z,2120.00
2018-07-19T04:07:47.436Z,2272.00
2018-07-19T04:08:47.450Z,2332.00
2018-07-19T04:09:47.441Z,2440.00
2018-07-19T04:10:47.439Z,2432.00
2018-07-19T04:11:47.441Z,2544.00
2018-07-19T04:12:47.442Z,2632.00
2018-07-19T04:13:47.445Z,2460.00
2018-07-19T04:14:47.440Z,2268.00
2018-07-19T04:15:47.448Z,2396.00
2018-07-19T04:16:47.453Z,2468.00
2018-07-19T04:17:47.449Z,2688.00
2018-07-19T04:18:47.451Z,2928.00
2018-07-19T04:19:47.448Z,3104.00
2018-07-19T04:20:47.473Z,3164.00
2018-07-19T04:21:47.448Z,3296.00
2018-07-19T04:22:47.450Z,3348.00
2018-07-19T04:23:47.452Z,2920.00
2018-07-19T04:24:47.456Z,3500.00
2018-07-19T04:25:47.458Z,3824.00
2018-07-19T04:26:47.453Z,3856.00
2018-07-19T04:27:47.451Z,3916.00
2018-07-19T04:28:47.457Z,3160.00
2018-07-19T04:29:47.459Z,3628.00
2018-07-19T04:30:47.461Z,4116.00
2018-07-19T04:31:47.462Z,4404.00
2018-07-19T04:32:47.458Z,4580.00
2018-07-19T04:33:47.463Z,4648.00
2018-07-19T04:34:47.464Z,4648.00
2018-07-19T04:35:47.467Z,4716.00
2018-07-19T04:36:47.468Z,4808.00
2018-07-19T04:37:47.471Z,4856.00
2018-07-19T04:38:47.472Z,4908.00
2018-07-19T04:39:47.471Z,4976.00
2018-07-19T04:40:47.475Z,5016.00
2018-07-19T04:41:47.477Z,5040.00
2018-07-19T04:42:47.476Z,5124.00
2018-07-19T04:43:47.478Z,5248.00
2018-07-19T04:44:47.484Z,5356.00
2018-07-19T04:45:47.483Z,5436.00
2018-07-19T04:46:47.483Z,5448.00
2018-07-19T04:47:47.486Z,5512.00
2018-07-19T04:48:47.491Z,5580.00
2018-07-19T04:49:47.489Z,5692.00
2018-07-19T04:50:47.492Z,5784.00
2018-07-19T04:51:47.493Z,5872.00
2018-07-19T04:52:47.492Z,5976.00
2018-07-19T04:53:47.499Z,6004.00
2018-07-19T04:54:47.496Z,6048.00
2018-07-19T04:55:47.505Z,6168.00
2018-07-19T04:56:47.502Z,6248.00
2018-07-19T04:57:47.507Z,6276.00
2018-07-19T04:58:47.508Z,6288.00
2018-07-19T04:59:47.508Z,6316.00
2018-07-19T05:00:47.509Z,6400.00
2018-07-19T05:01:47.520Z,6484.00
2018-07-19T05:02:47.510Z,6488.00
2018-07-19T05:03:47.515Z,6512.00
2018-07-19T05:04:47.519Z,6596.00
2018-07-19T05:05:47.524Z,6704.00
2018-07-19T05:06:47.529Z,6700.00
2018-07-19T05:07:47.527Z,6724.00
2018-07-19T05:08:47.528Z,6768.00
2018-07-19T05:09:47.527Z,6848.00
2018-07-19T05:10:47.532Z,6884.00
2018-07-19T05:11:47.536Z,6952.00
2018-07-19T05:12:47.539Z,6940.00
2018-07-19T05:13:47.540Z,6944.00
2018-07-19T05:14:47.543Z,7136.00
2018-07-19T05:15:47.542Z,7116.00
2018-07-19T05:16:47.601Z,7224.00
2018-07-19T05:17:47.551Z,7108.00
2018-07-19T05:18:47.553Z,7008.00
2018-07-19T05:19:47.555Z,7020.00
2018-07-19T05:20:47.559Z,6976.00
2018-07-19T05:21:47.598Z,7016.00
2018-07-19T05:22:47.569Z,7112.00
2018-07-19T05:23:47.568Z,7532.00
2018-07-19T05:24:47.574Z,7856.00
2018-07-19T05:25:47.576Z,7948.00
2018-07-19T05:26:47.577Z,7832.00
2018-07-19T05:27:47.581Z,8256.00
2018-07-19T05:28:47.583Z,8496.00
2018-07-19T05:29:47.592Z,8044.00
2018-07-19T05:30:47.591Z,8200.00
2018-07-19T05:31:47.598Z,8604.00
2018-07-19T05:32:47.604Z,8356.00
2018-07-19T05:33:47.599Z,8072.00
2018-07-19T05:34:47.602Z,8164.00
2018-07-19T05:35:47.606Z,8464.00
2018-07-19T05:36:47.608Z,8312.00
2018-07-19T05:37:47.612Z,8200.00
2018-07-19T05:38:47.646Z,8412.00
2018-07-19T05:39:47.620Z,6532.00
2018-07-19T05:40:47.626Z,8652.00
2018-07-19T05:41:47.624Z,9880.00
2018-07-19T05:42:47.627Z,8596.00
2018-07-19T05:43:47.629Z,8176.00
2018-07-19T05:44:47.635Z,8176.00
2018-07-19T05:45:47.639Z,8200.00
2018-07-19T05:46:47.640Z,6944.00
2018-07-19T05:47:47.647Z,8648.00
2018-07-19T05:48:47.915Z,8804.00
2018-07-19T05:49:47.659Z,8788.00
2018-07-19T05:50:47.656Z,8796.00
2018-07-19T05:51:47.661Z,8856.00
2018-07-19T05:52:47.662Z,8904.00
2018-07-19T05:53:47.667Z,8244.00
2018-07-19T05:54:47.671Z,9376.00
2018-07-19T05:55:47.672Z,9224.00
2018-07-19T05:56:47.676Z,9140.00
2018-07-19T05:57:47.683Z,9100.00
2018-07-19T05:58:47.684Z,9648.00
2018-07-19T05:59:47.689Z,10016.00
2018-07-19T06:00:47.692Z,10192.00
2018-07-19T06:01:47.695Z,10040.00
2018-07-19T06:02:47.703Z,10072.00
2018-07-19T06:03:47.735Z,10496.00
2018-07-19T06:04:47.707Z,10596.00
2018-07-19T06:05:47.709Z,10732.00
2018-07-19T06:06:47.714Z,10680.00
2018-07-19T06:07:47.718Z,10652.00
2018-07-19T06:08:47.725Z,10624.00
2018-07-19T06:09:47.724Z,10640.00
2018-07-19T06:10:47.729Z,10784.00
2018-07-19T06:11:47.733Z,10880.00
2018-07-19T06:12:47.737Z,11216.00
2018-07-19T06:13:47.742Z,12488.00
2018-07-19T06:14:47.746Z,16320.00
2018-07-19T06:15:47.766Z,20576.00
2018-07-19T06:16:47.753Z,21696.00
2018-07-19T06:17:47.759Z,21824.00
2018-07-19T06:18:47.759Z,22048.00
2018-07-19T06:19:47.765Z,22464.00
2018-07-19T06:20:47.773Z,22080.00
2018-07-19T06:21:47.774Z,22656.00
2018-07-19T06:22:47.776Z,21824.00
2018-07-19T06:23:47.780Z,12304.00
2018-07-19T06:24:47.798Z,8424.00
2018-07-19T06:25:47.791Z,8004.00
2018-07-19T06:26:47.794Z,8812.00
2018-07-19T06:27:47.796Z,9240.00
2018-07-19T06:28:47.803Z,9192.00
2018-07-19T06:29:47.834Z,12544.00
2018-07-19T06:30:47.812Z,11416.00
2018-07-19T06:31:47.818Z,30208.00
2018-07-19T06:32:47.819Z,31200.00
2018-07-19T06:33:47.824Z,21344.00
2018-07-19T06:34:47.828Z,18176.00
2018-07-19T06:35:47.832Z,32352.00
2018-07-19T06:36:47.838Z,28128.00
2018-07-19T06:37:47.840Z,19424.00
2018-07-19T06:38:47.844Z,35424.00
2018-07-19T06:39:47.864Z,18592.00
2018-07-19T06:40:47.853Z,18592.00
2018-07-19T06:41:47.864Z,19808.00
2018-07-19T06:42:47.869Z,14276.00
2018-07-19T06:43:47.868Z,13612.00
2018-07-19T06:44:47.869Z,8448.00
2018-07-19T06:45:47.876Z,7232.00
2018-07-19T06:46:47.889Z,6768.00
2018-07-19T06:47:47.882Z,6060.00
2018-07-19T06:48:47.884Z,5104.00
2018-07-19T06:49:47.890Z,4556.00
2018-07-19T06:50:47.894Z,4208.00
2018-07-19T06:51:47.899Z,4084.00
2018-07-19T06:52:47.902Z,4312.00
2018-07-19T06:53:47.907Z,4368.00
2018-07-19T06:54:47.914Z,4300.00
2018-07-19T06:55:47.916Z,4368.00
2018-07-19T06:56:47.921Z,4564.00
2018-07-19T06:57:47.921Z,4800.00
2018-07-19T06:58:47.924Z,4976.00
2018-07-19T06:59:47.947Z,5008.00
2018-07-19T07:00:47.932Z,5212.00
2018-07-19T07:01:47.935Z,5768.00
2018-07-19T07:02:47.957Z,6636.00
2018-07-19T07:03:47.941Z,7120.00
2018-07-19T07:04:47.946Z,7292.00
2018-07-19T07:05:47.949Z,7336.00
2018-07-19T07:06:47.953Z,7668.00
2018-07-19T07:07:47.956Z,7824.00
2018-07-19T07:08:47.982Z,7424.00
2018-07-19T07:09:47.961Z,6764.00
2018-07-19T07:10:47.963Z,5884.00
2018-07-19T07:11:47.969Z,5316.00
2018-07-19T07:12:47.970Z,5408.00
2018-07-19T07:13:47.977Z,6160.00
2018-07-19T07:14:47.975Z,7500.00
2018-07-19T07:15:47.979Z,8840.00
2018-07-19T07:16:47.983Z,9364.00
2018-07-19T07:17:47.996Z,9484.00
2018-07-19T07:18:47.987Z,8888.00
2018-07-19T07:19:47.989Z,8056.00
2018-07-19T07:20:47.994Z,7668.00
2018-07-19T07:21:48.000Z,7488.00
2018-07-19T07:22:47.999Z,7348.00
2018-07-19T07:23:48.005Z,6956.00
2018-07-19T07:24:48.001Z,6848.00
2018-07-19T07:25:48.008Z,6848.00
2018-07-19T07:26:48.013Z,6844.00
2018-07-19T07:27:48.022Z,6484.00
2018-07-19T07:28:48.022Z,6036.00
2018-07-19T07:29:48.023Z,5592.00
2018-07-19T07:30:48.023Z,5356.00
2018-07-19T07:31:48.026Z,5252.00
2018-07-19T07:32:48.029Z,5292.00
2018-07-19T07:33:48.033Z,5580.00
2018-07-19T07:34:48.035Z,5892.00
2018-07-19T07:35:48.052Z,5964.00
2018-07-19T07:36:48.041Z,5400.00
2018-07-19T07:37:48.044Z,4580.00
2018-07-19T07:38:48.080Z,4208.00
2018-07-19T07:39:48.048Z,4320.00
2018-07-19T07:40:48.055Z,4584.00
2018-07-19T07:41:48.062Z,4888.00
2018-07-19T07:42:48.057Z,5024.00
2018-07-19T07:43:48.059Z,4900.00
2018-07-19T07:44:48.065Z,4964.00
2018-07-19T07:45:48.063Z,5316.00
2018-07-19T07:46:48.069Z,5724.00
2018-07-19T07:47:48.072Z,5912.00
2018-07-19T07:48:48.075Z,5884.00
2018-07-19T07:49:48.078Z,5920.00
2018-07-19T07:50:48.083Z,5996.00
2018-07-19T07:51:48.079Z,6164.00
2018-07-19T07:52:48.090Z,6412.00
2018-07-19T07:53:48.089Z,6472.00
2018-07-19T07:54:48.091Z,6352.00
2018-07-19T07:55:48.094Z,6100.00
2018-07-19T07:56:48.097Z,5992.00
2018-07-19T07:57:48.100Z,5820.00
2018-07-19T07:58:48.102Z,5620.00
2018-07-19T07:59:48.107Z,5480.00
2018-07-19T08:00:48.113Z,5248.00
2018-07-19T08:01:48.109Z,4956.00
2018-07-19T08:02:48.115Z,4768.00
2018-07-19T08:03:48.116Z,4700.00
2018-07-19T08:04:48.118Z,4716.00
2018-07-19T08:05:48.121Z,4812.00
2018-07-19T08:06:48.125Z,4892.00
2018-07-19T08:07:48.125Z,5044.00
2018-07-19T08:08:48.134Z,5184.00
2018-07-19T08:09:48.133Z,5256.00
2018-07-19T08:10:48.136Z,5384.00
2018-07-19T08:11:48.136Z,5416.00
2018-07-19T08:12:48.142Z,5452.00
2018-07-19T08:13:48.145Z,5448.00
2018-07-19T08:14:48.146Z,5256.00
2018-07-19T08:15:48.159Z,5008.00
2018-07-19T08:16:48.150Z,4712.00
2018-07-19T08:17:48.153Z,4480.00
2018-07-19T08:18:48.157Z,4316.00
2018-07-19T08:19:48.162Z,4228.00
2018-07-19T08:20:48.162Z,4188.00
2018-07-19T08:21:48.191Z,4188.00
2018-07-19T08:22:48.168Z,4192.00
2018-07-19T08:23:48.169Z,4196.00
2018-07-19T08:24:48.178Z,4212.00
2018-07-19T08:25:48.182Z,4220.00
2018-07-19T08:26:48.176Z,4188.00
2018-07-19T08:27:48.180Z,4132.00
2018-07-19T08:28:48.185Z,4060.00
2018-07-19T08:29:48.187Z,4032.00
2018-07-19T08:30:48.188Z,3996.00
2018-07-19T08:31:48.191Z,3984.00
2018-07-19T08:32:48.194Z,4056.00
2018-07-19T08:33:48.198Z,4216.00
2018-07-19T08:34:48.197Z,4380.00
2018-07-19T08:35:48.219Z,4528.00
2018-07-19T08:36:48.203Z,4592.00
2018-07-19T08:37:48.208Z,4488.00
2018-07-19T08:38:48.210Z,4252.00
2018-07-19T08:39:48.211Z,4068.00
2018-07-19T08:40:48.215Z,3948.00
2018-07-19T08:41:48.265Z,3844.00
2018-07-19T08:42:48.221Z,3692.00
2018-07-19T08:43:48.223Z,3548.00
2018-07-19T08:44:48.227Z,3420.00
2018-07-19T08:45:48.229Z,3340.00
2018-07-19T08:46:48.242Z,3296.00
2018-07-19T08:47:48.233Z,3296.00
2018-07-19T08:48:48.235Z,3328.00
2018-07-19T08:49:48.238Z,3388.00
2018-07-19T08:50:48.254Z,3488.00
2018-07-19T08:51:48.244Z,3656.00
2018-07-19T08:52:48.247Z,3864.00
2018-07-19T08:53:48.249Z,4092.00
2018-07-19T08:54:48.253Z,4320.00
2018-07-19T08:55:48.268Z,4560.00
2018-07-19T08:56:48.299Z,4812.00
2018-07-19T08:57:48.263Z,5064.00
2018-07-19T08:58:48.257Z,5340.00
2018-07-19T08:59:48.259Z,5568.00
2018-07-19T09:00:48.267Z,5688.00
2018-07-19T09:01:48.272Z,5656.00
2018-07-19T09:02:48.272Z,5564.00
2018-07-19T09:03:48.276Z,5492.00
2018-07-19T09:04:48.284Z,5476.00
2018-07-19T09:05:48.281Z,5548.00
2018-07-19T09:06:48.283Z,5700.00
2018-07-19T09:07:48.286Z,5824.00
2018-07-19T09:08:48.287Z,5832.00
2018-07-19T09:09:48.293Z,5776.00
2018-07-19T09:10:48.292Z,5716.00
2018-07-19T09:11:48.302Z,5644.00
2018-07-19T09:12:48.299Z,5520.00
2018-07-19T09:13:48.302Z,5364.00
2018-07-19T09:14:48.305Z,5208.00
2018-07-19T09:15:48.308Z,5040.00
2018-07-19T09:16:48.309Z,4904.00
2018-07-19T09:17:48.312Z,4788.00
2018-07-19T09:18:48.315Z,4708.00
2018-07-19T09:19:48.347Z,4668.00
2018-07-19T09:20:48.320Z,4652.00
2018-07-19T09:21:48.323Z,4684.00
2018-07-19T09:22:48.380Z,4740.00
2018-07-19T09:23:48.330Z,4804.00
2018-07-19T09:24:48.328Z,4884.00
2018-07-19T09:25:48.335Z,5000.00
2018-07-19T09:26:48.340Z,5140.00
2018-07-19T09:27:48.340Z,5252.00
2018-07-19T09:28:48.342Z,5348.00
2018-07-19T09:29:48.345Z,5444.00
2018-07-19T09:30:48.347Z,5536.00
2018-07-19T09:31:48.348Z,5624.00
2018-07-19T09:32:48.351Z,5748.00
2018-07-19T09:33:48.355Z,5872.00
2018-07-19T09:34:48.362Z,6028.00
2018-07-19T09:35:48.360Z,6200.00
2018-07-19T09:36:48.364Z,6432.00
2018-07-19T09:37:48.380Z,6744.00
2018-07-19T09:38:48.370Z,7100.00
2018-07-19T09:39:48.371Z,7432.00
2018-07-19T09:40:48.376Z,7728.00
2018-07-19T09:41:48.423Z,7920.00
2018-07-19T09:42:48.380Z,8060.00
2018-07-19T09:43:48.382Z,8196.00
2018-07-19T09:44:48.385Z,8320.00
2018-07-19T09:45:48.388Z,8392.00
2018-07-19T09:46:48.394Z,8400.00
2018-07-19T09:47:48.396Z,8388.00
2018-07-19T09:48:48.419Z,8280.00
2018-07-19T09:49:48.400Z,8140.00
2018-07-19T09:50:48.435Z,8072.00
2018-07-19T09:51:48.410Z,8104.00
2018-07-19T09:52:48.408Z,8280.00
2018-07-19T09:53:48.411Z,8548.00
2018-07-19T09:54:48.412Z,8840.00
2018-07-19T09:55:48.421Z,8992.00
2018-07-19T09:56:48.420Z,8884.00
2018-07-19T09:57:48.418Z,8656.00
2018-07-19T09:58:48.421Z,8420.00
2018-07-19T09:59:48.426Z,8196.00
2018-07-19T10:00:48.428Z,8000.00
2018-07-19T10:01:48.471Z,7836.00
2018-07-19T10:02:48.437Z,7720.00
2018-07-19T10:03:48.442Z,7688.00
2018-07-19T10:04:48.444Z,7680.00
2018-07-19T10:05:48.526Z,7696.00
2018-07-19T10:06:48.450Z,7756.00
2018-07-19T10:07:48.495Z,7732.00
2018-07-19T10:08:48.456Z,7644.00
2018-07-19T10:09:48.461Z,7564.00
2018-07-19T10:10:48.461Z,7504.00
2018-07-19T10:11:48.467Z,7456.00
2018-07-19T10:12:48.472Z,7360.00
2018-07-19T10:13:48.529Z,7224.00
2018-07-19T10:14:48.514Z,7116.00
2018-07-19T10:15:48.484Z,7064.00
2018-07-19T10:16:48.481Z,7084.00
2018-07-19T10:17:48.482Z,7220.00
2018-07-19T10:18:48.486Z,7424.00
2018-07-19T10:19:48.487Z,7748.00
2018-07-19T10:20:48.498Z,8164.00
2018-07-19T10:21:48.497Z,8688.00
2018-07-19T10:22:48.501Z,9252.00
2018-07-19T10:23:48.503Z,9948.00
2018-07-19T10:24:48.507Z,10772.00
2018-07-19T10:25:48.510Z,11632.00
2018-07-19T10:26:48.511Z,12360.00
2018-07-19T10:27:48.513Z,12840.00
2018-07-19T10:28:48.521Z,13124.00
2018-07-19T10:29:48.529Z,13272.00
2018-07-19T10:30:48.527Z,13092.00
2018-07-19T10:31:48.533Z,12480.00
2018-07-19T10:32:48.551Z,11708.00
2018-07-19T10:33:48.537Z,11056.00
2018-07-19T10:34:48.540Z,10616.00
2018-07-19T10:35:48.544Z,10296.00
2018-07-19T10:36:48.549Z,10108.00
2018-07-19T10:37:48.553Z,10036.00
2018-07-19T10:38:48.559Z,10064.00
2018-07-19T10:39:48.563Z,10040.00
2018-07-19T10:40:48.563Z,10004.00
2018-07-19T10:41:48.565Z,9872.00
2018-07-19T10:42:48.569Z,9736.00
2018-07-19T10:43:48.573Z,9636.00
2018-07-19T10:44:48.577Z,9560.00
2018-07-19T10:45:48.583Z,9628.00
2018-07-19T10:46:48.582Z,9844.00
2018-07-19T10:47:48.589Z,10100.00
2018-07-19T10:48:48.592Z,10232.00
2018-07-19T10:49:48.598Z,10232.00
2018-07-19T10:50:48.598Z,10196.00
2018-07-19T10:51:48.630Z,10216.00
2018-07-19T10:52:48.606Z,10328.00
2018-07-19T10:53:48.610Z,10416.00
2018-07-19T10:54:48.615Z,10436.00
2018-07-19T10:55:48.620Z,10416.00
2018-07-19T10:56:48.621Z,10288.00
2018-07-19T10:57:48.626Z,10136.00
2018-07-19T10:58:48.624Z,10132.00
2018-07-19T10:59:48.637Z,10320.00
2018-07-19T11:00:48.633Z,10616.00
2018-07-19T11:01:48.639Z,10928.00
2018-07-19T11:02:48.716Z,11276.00
2018-07-19T11:03:48.648Z,11580.00
2018-07-19T11:04:48.655Z,11736.00
2018-07-19T11:05:48.657Z,11868.00
2018-07-19T11:06:48.660Z,12016.00
2018-07-19T11:07:48.665Z,12304.00
2018-07-19T11:08:48.718Z,12556.00
2018-07-19T11:09:48.718Z,12600.00
2018-07-19T11:10:48.675Z,12684.00
2018-07-19T11:11:48.693Z,12796.00
2018-07-19T11:12:48.690Z,12860.00
2018-07-19T11:13:48.690Z,12848.00
2018-07-19T11:14:48.692Z,12928.00
2018-07-19T11:15:48.754Z,13000.00
2018-07-19T11:16:48.701Z,12948.00
2018-07-19T11:17:48.705Z,12728.00
2018-07-19T11:18:48.709Z,12288.00
2018-07-19T11:19:48.713Z,11724.00
2018-07-19T11:20:48.716Z,11368.00
2018-07-19T11:21:48.723Z,11256.00
2018-07-19T11:22:48.730Z,11136.00
2018-07-19T11:23:48.736Z,11028.00
2018-07-19T11:24:48.736Z,10864.00
2018-07-19T11:25:48.740Z,10592.00
2018-07-19T11:26:48.744Z,10440.00
2018-07-19T11:27:48.746Z,10536.00
2018-07-19T11:28:48.749Z,10728.00
2018-07-19T11:29:48.755Z,10948.00
2018-07-19T11:30:48.759Z,11016.00
2018-07-19T11:31:48.764Z,11100.00
2018-07-19T11:32:48.769Z,11236.00
2018-07-19T11:33:48.773Z,11440.00
2018-07-19T11:34:48.776Z,11676.00
2018-07-19T11:35:48.782Z,11824.00
2018-07-19T11:36:48.788Z,11800.00
2018-07-19T11:37:48.796Z,11576.00
2018-07-19T11:38:48.794Z,11120.00
2018-07-19T11:39:48.799Z,10448.00
2018-07-19T11:40:48.801Z,9832.00
2018-07-19T11:41:48.809Z,9344.00
2018-07-19T11:42:48.807Z,9004.00
2018-07-19T11:43:48.820Z,8812.00
2018-07-19T11:44:48.827Z,8652.00
2018-07-19T11:45:48.828Z,8596.00
2018-07-19T11:46:48.831Z,8680.00
2018-07-19T11:47:48.835Z,8760.00
2018-07-19T11:48:48.839Z,8764.00
2018-07-19T11:49:48.866Z,8728.00
2018-07-19T11:50:48.849Z,8696.00
2018-07-19T11:51:48.854Z,8688.00
2018-07-19T11:52:48.859Z,8788.00
2018-07-19T11:53:48.864Z,9012.00
2018-07-19T11:54:48.870Z,9336.00
2018-07-19T11:55:48.876Z,9656.00
2018-07-19T11:56:48.876Z,9864.00
2018-07-19T11:57:48.881Z,9708.00
2018-07-19T11:58:48.914Z,9232.00
2018-07-19T11:59:48.890Z,8696.00
2018-07-19T12:00:48.904Z,8304.00
2018-07-19T12:01:48.947Z,8072.00
2018-07-19T12:02:48.902Z,7936.00
2018-07-19T12:03:48.907Z,7992.00
2018-07-19T12:04:48.937Z,8140.00
2018-07-19T12:05:48.917Z,8344.00
2018-07-19T12:06:48.922Z,8804.00
2018-07-19T12:07:48.928Z,9436.00
2018-07-19T12:08:48.936Z,10132.00
2018-07-19T12:09:48.935Z,11024.00
2018-07-19T12:10:48.939Z,11424.00
2018-07-19T12:11:48.944Z,11648.00
2018-07-19T12:12:48.945Z,11588.00
2018-07-19T12:13:48.954Z,11264.00
2018-07-19T12:14:48.957Z,10852.00
2018-07-19T12:15:48.960Z,10404.00
2018-07-19T12:16:48.965Z,10064.00
2018-07-19T12:17:48.974Z,9780.00
2018-07-19T12:18:48.977Z,9464.00
2018-07-19T12:19:48.979Z,9056.00